Time;durP1;ratioP1;P1;durP2;ratioP2;P2;SDS_P1;SDS_P2;PMS_P1;PMS_P2;Temp;Humidity;BMP_temperature;BMP_pressure;BME280_temperature;BME280_humidity;BME280_pressure;Samples;Min_cycle;Max_cycle;Signal;HPM_P1;HPM_P2
2022/03/18 00:01:29;;;;;;;1.67;1.55;;;21.10;42.20;;;;;;5075980;28;43470;-61
2022/03/18 00:03:56;;;;;;;2.20;1.65;;;21.00;42.10;;;;;;5083001;28;43575;-62
2022/03/18 00:06:24;;;;;;;2.15;1.60;;;21.00;42.10;;;;;;5080655;27;46522;-62
2022/03/18 00:08:51;;;;;;;2.45;1.85;;;21.00;42.20;;;;;;5083634;27;43501;-62
2022/03/18 00:11:19;;;;;;;2.58;1.90;;;21.00;42.20;;;;;;5079258;28;43471;-62
2022/03/18 00:13:46;;;;;;;2.22;1.65;;;21.00;42.20;;;;;;5078664;28;43461;-62
2022/03/18 00:16:14;;;;;;;2.10;1.80;;;21.00;42.20;;;;;;5083131;27;44113;-62
2022/03/18 00:18:41;;;;;;;2.88;2.00;;;20.90;42.10;;;;;;5079310;27;43687;-62
2022/03/18 00:21:09;;;;;;;2.85;1.65;;;21.00;42.20;;;;;;5079756;27;43438;-62
2022/03/18 00:23:37;;;;;;;3.28;1.90;;;20.90;42.10;;;;;;5083377;28;43600;-62
2022/03/18 00:26:04;;;;;;;2.42;1.65;;;20.90;42.20;;;;;;5083401;27;44711;-62
2022/03/18 00:28:32;;;;;;;2.30;1.52;;;20.90;42.20;;;;;;5079344;27;44192;-62
2022/03/18 00:31:00;;;;;;;2.17;1.70;;;20.90;42.20;;;;;;5081999;28;43420;-63
2022/03/18 00:33:27;;;;;;;1.67;1.48;;;20.90;42.20;;;;;;5080116;28;43638;-62
2022/03/18 00:35:55;;;;;;;2.25;1.60;;;20.90;42.20;;;;;;5082600;27;43813;-62
2022/03/18 00:38:23;;;;;;;3.25;2.00;;;20.90;42.20;;;;;;5083434;28;43462;-62
2022/03/18 00:40:50;;;;;;;2.03;1.70;;;20.80;42.20;;;;;;5079249;27;43479;-62
2022/03/18 00:43:18;;;;;;;2.40;1.80;;;20.80;42.20;;;;;;5080787;27;43537;-62
2022/03/18 00:45:45;;;;;;;2.85;1.90;;;20.80;42.20;;;;;;5081790;28;43940;-62
2022/03/18 00:53:46;;;;;;;2.38;1.65;;;20.80;42.90;;;;;;5081372;28;43477;-62
2022/03/18 00:56:13;;;;;;;3.38;1.77;;;20.70;42.20;;;;;;5082331;27;44721;-62
2022/03/18 00:58:42;;;;;;;1.65;1.52;;;20.70;42.20;;;;;;5078983;28;43446;-62
2022/03/18 01:01:10;;;;;;;3.25;1.90;;;20.70;42.20;;;;;;5084664;28;43434;-62
2022/03/18 01:03:37;;;;;;;2.63;1.65;;;20.70;42.30;;;;;;5081900;28;43475;-62
2022/03/18 01:06:05;;;;;;;2.63;1.77;;;20.70;42.30;;;;;;5085484;27;43797;-62
2022/03/18 01:08:32;;;;;;;2.22;1.75;;;20.70;42.30;;;;;;5079079;28;43379;-62
2022/03/18 01:11:01;;;;;;;4.30;1.98;;;20.60;42.20;;;;;;5086673;27;43396;-62
2022/03/18 01:13:28;;;;;;;2.97;1.88;;;20.60;42.20;;;;;;5083077;27;43564;-62
2022/03/18 01:15:55;;;;;;;1.60;1.45;;;20.60;42.20;;;;;;5084653;28;43863;-62
2022/03/18 01:18:23;;;;;;;2.40;1.60;;;20.60;42.30;;;;;;5082473;28;44312;-62
2022/03/18 01:20:51;;;;;;;2.35;1.67;;;20.60;42.20;;;;;;5086527;27;43477;-62
2022/03/18 01:23:18;;;;;;;2.47;1.75;;;20.60;42.30;;;;;;5083359;27;43500;-62
2022/03/18 01:25:45;;;;;;;1.80;1.55;;;20.60;42.20;;;;;;5083968;27;43961;-62
2022/03/18 01:28:13;;;;;;;3.10;1.90;;;20.60;42.30;;;;;;5083161;28;43477;-62
2022/03/18 01:30:40;;;;;;;2.63;1.80;;;20.50;42.30;;;;;;5085785;27;43367;-62
2022/03/18 01:33:08;;;;;;;2.35;1.63;;;20.50;42.20;;;;;;5085962;27;43518;-62
2022/03/18 01:35:37;;;;;;;2.42;1.52;;;20.50;42.30;;;;;;5081243;27;43801;-63
2022/03/18 01:38:04;;;;;;;3.33;1.73;;;20.50;42.30;;;;;;5083155;28;43522;-62
2022/03/18 01:40:32;;;;;;;2.92;1.85;;;20.50;42.30;;;;;;5086352;27;43462;-62
2022/03/18 01:42:59;;;;;;;3.00;1.70;;;20.50;42.30;;;;;;5082128;27;43480;-62
2022/03/18 01:45:27;;;;;;;1.77;1.40;;;20.50;42.30;;;;;;5084742;27;43812;-62
2022/03/18 01:47:54;;;;;;;3.00;1.73;;;20.50;42.30;;;;;;5079856;28;43698;-62
2022/03/18 01:50:22;;;;;;;3.05;1.85;;;20.50;42.30;;;;;;5086099;27;43436;-62
2022/03/18 01:52:50;;;;;;;3.25;1.75;;;20.50;42.30;;;;;;5082035;27;43622;-62
2022/03/18 01:55:20;;;;;;;2.70;1.80;;;20.40;42.30;;;;;;5082435;28;43815;-62
2022/03/18 01:57:48;;;;;;;1.90;1.65;;;20.40;42.40;;;;;;5082015;28;43568;-62
2022/03/18 02:00:15;;;;;;;2.92;1.58;;;20.40;42.30;;;;;;5086048;27;43558;-62
2022/03/18 02:02:43;;;;;;;3.13;2.08;;;20.40;42.40;;;;;;5085769;28;43623;-62
2022/03/18 02:05:11;;;;;;;3.95;2.17;;;20.40;42.40;;;;;;5080868;27;43800;-62
2022/03/18 02:07:38;;;;;;;3.35;1.90;;;20.30;42.30;;;;;;5081514;28;43580;-62
2022/03/18 02:10:07;;;;;;;2.25;1.60;;;20.30;42.40;;;;;;5085864;27;43415;-62
2022/03/18 02:12:35;;;;;;;3.15;1.92;;;20.30;42.40;;;;;;5081323;27;44026;-62
2022/03/18 02:15:04;;;;;;;2.35;1.90;;;20.30;42.40;;;;;;5080518;27;43978;-62
2022/03/18 02:17:31;;;;;;;2.53;1.67;;;20.30;42.70;;;;;;5081276;27;43352;-63
2022/03/18 02:19:59;;;;;;;2.20;1.50;;;20.30;42.50;;;;;;5085407;27;43406;-62
2022/03/18 02:22:28;;;;;;;2.05;1.55;;;20.30;42.40;;;;;;5084250;28;43511;-62
2022/03/18 02:24:56;;;;;;;2.55;1.75;;;20.30;42.40;;;;;;5084733;27;43934;-61
2022/03/18 02:27:23;;;;;;;2.15;1.77;;;20.20;42.40;;;;;;5081041;27;43377;-62
2022/03/18 02:29:51;;;;;;;2.15;1.77;;;20.20;42.40;;;;;;5085390;27;43929;-62
2022/03/18 02:32:19;;;;;;;3.42;1.90;;;20.20;42.40;;;;;;5080961;27;43468;-62
2022/03/18 02:34:47;;;;;;;2.55;1.70;;;20.20;43.00;;;;;;5082991;28;43907;-62
2022/03/18 02:37:14;;;;;;;3.47;2.55;;;20.20;42.40;;;;;;5082587;28;43426;-62
2022/03/18 02:39:42;;;;;;;2.97;2.00;;;20.20;42.40;;;;;;5085224;27;43439;-62
2022/03/18 02:42:09;;;;;;;2.50;1.70;;;20.20;42.40;;;;;;5080849;27;43478;-61
2022/03/18 02:44:36;;;;;;;2.85;1.80;;;20.10;42.30;;;;;;5082055;27;44024;-62
2022/03/18 02:47:04;;;;;;;1.83;1.63;;;20.10;42.40;;;;;;5079097;28;43519;-62
2022/03/18 02:49:32;;;;;;;2.67;1.88;;;20.10;42.40;;;;;;5079383;28;43443;-62
2022/03/18 02:52:00;;;;;;;2.97;1.90;;;20.10;42.40;;;;;;5085010;27;43502;-61
2022/03/18 02:54:27;;;;;;;2.35;1.90;;;20.10;42.40;;;;;;5082396;27;44778;-62
2022/03/18 02:56:55;;;;;;;3.13;1.95;;;20.10;42.50;;;;;;5083737;28;44321;-62
2022/03/18 02:59:22;;;;;;;2.88;1.70;;;20.10;42.50;;;;;;5080553;27;43447;-62
2022/03/18 03:01:50;;;;;;;2.67;1.63;;;20.10;42.50;;;;;;5083590;27;43991;-61
2022/03/18 03:04:18;;;;;;;2.53;1.95;;;20.10;42.40;;;;;;5079659;28;43873;-62
2022/03/18 03:09:31;;;;;;;2.03;1.80;;;20.10;42.50;;;;;;5080965;28;43527;-62
2022/03/18 03:11:58;;;;;;;2.85;2.05;;;20.00;42.40;;;;;;5084280;27;43999;-62
2022/03/18 03:14:26;;;;;;;2.25;1.80;;;20.00;42.40;;;;;;5079388;27;43959;-61
2022/03/18 03:16:54;;;;;;;2.03;1.80;;;20.00;42.40;;;;;;5083597;27;43482;-62
2022/03/18 03:19:21;;;;;;;2.50;1.65;;;20.00;42.40;;;;;;5080486;27;43505;-61
2022/03/18 03:21:49;;;;;;;2.03;1.55;;;20.00;42.40;;;;;;5081506;28;43514;-62
2022/03/18 03:24:17;;;;;;;2.40;1.70;;;19.90;42.40;;;;;;5081835;28;43810;-61
2022/03/18 03:26:44;;;;;;;2.88;1.83;;;20.00;42.40;;;;;;5080641;27;43465;-62
2022/03/18 03:29:12;;;;;;;3.05;1.83;;;19.90;42.40;;;;;;5084822;27;43473;-62
2022/03/18 03:31:39;;;;;;;2.42;2.00;;;19.90;42.40;;;;;;5081548;28;43519;-62
2022/03/18 03:34:07;;;;;;;3.30;1.80;;;19.90;42.50;;;;;;5076021;28;44984;-62
2022/03/18 03:36:34;;;;;;;2.40;1.83;;;19.90;42.50;;;;;;5082724;28;43412;-62
2022/03/18 03:39:02;;;;;;;3.67;2.15;;;19.90;42.50;;;;;;5081006;27;43444;-62
2022/03/18 03:41:29;;;;;;;2.30;1.95;;;19.90;42.50;;;;;;5081385;28;43580;-62
2022/03/18 03:43:57;;;;;;;2.22;1.80;;;19.90;42.50;;;;;;5079433;28;44741;-62
2022/03/18 03:46:24;;;;;;;2.35;1.77;;;19.90;42.50;;;;;;5076863;27;44011;-62
2022/03/18 03:48:51;;;;;;;2.03;1.70;;;19.90;42.40;;;;;;5084149;27;43494;-63
2022/03/18 03:51:19;;;;;;;3.20;2.10;;;19.90;42.50;;;;;;5081165;28;43472;-62
2022/03/18 03:53:47;;;;;;;2.15;1.67;;;19.90;42.50;;;;;;5080636;28;43940;-62
2022/03/18 03:56:14;;;;;;;3.47;2.17;;;19.80;42.50;;;;;;5079663;27;43647;-62
2022/03/18 03:58:42;;;;;;;3.15;1.70;;;19.80;42.50;;;;;;5082542;27;43539;-62
2022/03/18 04:01:09;;;;;;;2.30;1.90;;;19.80;42.50;;;;;;5077701;28;43873;-63
2022/03/18 04:03:38;;;;;;;3.05;1.70;;;19.80;42.50;;;;;;5076605;28;44677;-62
2022/03/18 04:06:06;;;;;;;3.05;1.98;;;19.80;42.50;;;;;;5083211;27;43695;-62
2022/03/18 04:08:33;;;;;;;2.70;1.80;;;19.80;42.40;;;;;;5083196;27;43441;-62
2022/03/18 04:11:01;;;;;;;2.85;1.58;;;19.80;42.60;;;;;;5081179;28;43636;-62
2022/03/18 04:13:28;;;;;;;2.28;1.98;;;19.70;42.50;;;;;;5083858;28;44047;-62
2022/03/18 04:15:55;;;;;;;3.17;1.90;;;19.80;42.50;;;;;;5072335;28;43410;-62
2022/03/18 04:18:23;;;;;;;2.95;1.83;;;19.80;42.50;;;;;;5079530;27;43486;-62
2022/03/18 04:20:51;;;;;;;2.40;1.90;;;19.80;42.50;;;;;;5082067;28;43454;-62
2022/03/18 04:23:18;;;;;;;1.90;1.70;;;19.70;42.70;;;;;;5080700;28;44107;-62
2022/03/18 04:25:46;;;;;;;2.95;2.00;;;19.70;42.70;;;;;;5081961;28;43572;-62
2022/03/18 04:28:13;;;;;;;2.65;1.88;;;19.70;42.60;;;;;;5080560;28;43444;-62
2022/03/18 04:30:41;;;;;;;2.45;2.10;;;19.70;42.60;;;;;;5085907;27;43568;-62
2022/03/18 04:33:08;;;;;;;2.85;2.00;;;19.70;42.60;;;;;;5084337;28;44714;-62
2022/03/18 04:35:36;;;;;;;3.08;1.92;;;19.70;42.70;;;;;;5085923;27;43444;-62
2022/03/18 04:38:03;;;;;;;2.85;1.92;;;19.70;42.70;;;;;;5087205;27;43541;-62
2022/03/18 04:40:32;;;;;;;1.90;1.55;;;19.60;42.70;;;;;;5084204;28;43480;-62
2022/03/18 04:42:59;;;;;;;2.47;1.67;;;19.60;42.70;;;;;;5112063;27;44716;-62
2022/03/18 04:45:26;;;;;;;2.58;1.90;;;19.60;42.70;;;;;;5080777;28;43559;-62
2022/03/18 04:47:56;;;;;;;2.50;1.80;;;19.60;42.60;;;;;;5085709;28;43453;-62
2022/03/18 04:50:24;;;;;;;2.95;1.83;;;19.60;42.80;;;;;;5085419;27;43624;-62
2022/03/18 04:52:51;;;;;;;2.50;1.88;;;19.60;42.80;;;;;;5084492;28;43816;-62
2022/03/18 04:55:19;;;;;;;3.28;1.70;;;19.50;42.80;;;;;;5082446;27;43653;-62
2022/03/18 04:57:46;;;;;;;3.42;1.83;;;19.60;42.80;;;;;;5086767;27;43498;-62
2022/03/18 05:00:14;;;;;;;2.10;1.90;;;19.60;42.80;;;;;;5085208;27;44024;-63
2022/03/18 05:02:43;;;;;;;2.88;1.77;;;19.60;42.80;;;;;;5083734;28;43990;-63
2022/03/18 05:05:12;;;;;;;3.75;1.58;;;19.60;42.70;;;;;;5086545;28;43481;-62
2022/03/18 05:07:40;;;;;;;2.85;1.85;;;19.50;42.70;;;;;;5081371;28;43450;-62
2022/03/18 05:10:09;;;;;;;2.25;1.80;;;19.50;42.80;;;;;;5084620;27;43500;-62
2022/03/18 05:12:36;;;;;;;3.53;1.90;;;19.50;42.70;;;;;;5085754;28;43956;-62
2022/03/18 05:15:05;;;;;;;2.58;1.83;;;19.50;42.70;;;;;;5085619;27;43395;-62
2022/03/18 05:17:32;;;;;;;2.30;1.80;;;19.50;42.80;;;;;;5079774;28;43526;-62
2022/03/18 05:20:02;;;;;;;2.13;1.67;;;19.50;42.70;;;;;;5086085;27;44024;-62
2022/03/18 05:22:30;;;;;;;1.60;1.50;;;19.50;42.70;;;;;;5082733;28;43940;-62
2022/03/18 05:24:59;;;;;;;2.10;1.60;;;19.50;42.70;;;;;;5085819;28;43998;-62
2022/03/18 05:27:27;;;;;;;2.70;1.70;;;19.50;42.80;;;;;;5086613;27;43484;-62
2022/03/18 05:29:55;;;;;;;2.35;1.65;;;19.50;42.80;;;;;;5081941;28;43636;-62
2022/03/18 05:32:23;;;;;;;3.30;2.00;;;19.50;42.80;;;;;;5081944;27;43750;-61
2022/03/18 05:34:50;;;;;;;2.08;1.65;;;19.40;42.80;;;;;;5083544;28;44620;-62
2022/03/18 05:37:18;;;;;;;2.75;1.70;;;19.40;42.70;;;;;;5080505;27;43376;-62
2022/03/18 05:39:45;;;;;;;2.67;1.65;;;19.40;42.70;;;;;;5085048;27;43457;-63
2022/03/18 05:42:12;;;;;;;3.00;1.80;;;19.40;42.70;;;;;;5080574;28;43797;-62
2022/03/18 05:44:40;;;;;;;2.00;1.75;;;19.50;42.80;;;;;;5085313;28;43532;-62
2022/03/18 05:47:07;;;;;;;2.25;1.70;;;19.50;42.70;;;;;;5095187;27;43415;-62
2022/03/18 05:49:35;;;;;;;2.92;1.95;;;19.50;42.60;;;;;;5082394;27;43487;-62
2022/03/18 05:52:08;;;;;;;2.95;1.80;;;19.50;42.70;;;;;;5085904;28;44990;-62
2022/03/18 05:54:35;;;;;;;2.70;1.80;;;19.50;42.70;;;;;;5081028;28;43685;-63
2022/03/18 05:57:03;;;;;;;2.83;1.77;;;19.50;42.70;;;;;;5085930;27;43475;-62
2022/03/18 05:59:33;;;;;;;3.33;2.00;;;19.50;42.70;;;;;;5080665;28;43541;-62
2022/03/18 06:02:03;;;;;;;2.08;1.83;;;19.50;42.80;;;;;;5074909;28;44970;-63
2022/03/18 06:04:34;;;;;;;2.15;1.75;;;19.50;42.80;;;;;;5077075;28;44163;-63
2022/03/18 06:07:05;;;;;;;2.45;1.75;;;19.40;42.70;;;;;;5083026;28;43417;-62
2022/03/18 06:12:18;;;;;;;3.83;2.30;;;19.50;42.90;;;;;;5081395;27;43795;-62
2022/03/18 06:14:45;;;;;;;2.75;1.88;;;19.40;42.70;;;;;;5080447;27;43420;-62
2022/03/18 06:17:13;;;;;;;2.58;1.88;;;19.40;42.80;;;;;;5079983;28;43511;-63
2022/03/18 06:19:40;;;;;;;2.78;2.05;;;19.50;42.80;;;;;;5077183;28;43451;-62
2022/03/18 06:22:08;;;;;;;3.05;1.90;;;19.50;42.80;;;;;;5085216;27;44768;-63
2022/03/18 06:24:36;;;;;;;2.85;1.90;;;19.50;42.80;;;;;;5084799;27;43412;-62
2022/03/18 06:27:04;;;;;;;3.30;1.95;;;19.50;42.90;;;;;;5081354;28;43535;-62
2022/03/18 06:29:31;;;;;;;2.63;1.80;;;19.50;42.90;;;;;;5073751;28;43475;-62
2022/03/18 06:31:59;;;;;;;3.25;2.15;;;19.50;42.90;;;;;;5084912;28;44301;-62
2022/03/18 06:34:27;;;;;;;2.55;1.67;;;19.50;43.00;;;;;;5081524;27;43513;-63
2022/03/18 06:37:00;;;;;;;2.60;1.80;;;19.50;42.90;;;;;;5084639;28;43434;-63
2022/03/18 06:39:27;;;;;;;1.98;1.70;;;19.60;43.00;;;;;;5081302;27;43516;-62
2022/03/18 06:41:56;;;;;;;2.65;1.70;;;19.50;42.90;;;;;;5077074;28;43803;-62
2022/03/18 06:44:24;;;;;;;3.45;1.80;;;19.60;43.00;;;;;;5083974;27;43734;-63
2022/03/18 06:46:51;;;;;;;2.88;2.00;;;19.60;43.00;;;;;;5085417;27;43466;-63
2022/03/18 06:49:18;;;;;;;2.35;1.65;;;19.60;43.00;;;;;;5081350;27;43962;-63
2022/03/18 06:51:46;;;;;;;3.38;1.75;;;19.60;43.00;;;;;;5082791;27;44769;-63
2022/03/18 06:54:13;;;;;;;3.30;1.83;;;19.60;43.00;;;;;;5082261;28;43433;-62
2022/03/18 06:56:41;;;;;;;2.15;1.75;;;19.60;43.10;;;;;;5084926;27;43395;-62
2022/03/18 06:59:08;;;;;;;1.70;1.52;;;19.60;43.00;;;;;;5085014;27;43415;-62
2022/03/18 07:01:36;;;;;;;2.30;1.50;;;19.60;42.90;;;;;;5075914;27;43794;-62
2022/03/18 07:04:04;;;;;;;2.80;1.60;;;19.60;43.00;;;;;;5081417;28;43483;-63
2022/03/18 07:06:31;;;;;;;2.33;1.58;;;19.70;43.00;;;;;;5082051;28;43579;-62
2022/03/18 07:08:59;;;;;;;3.28;1.70;;;19.70;43.00;;;;;;5080466;27;43443;-62
2022/03/18 07:11:37;;;;;;;2.67;1.73;;;19.70;43.00;;;;;;5163043;27;43675;-63
2022/03/18 07:14:04;;;;;;;1.63;1.52;;;19.70;43.00;;;;;;5160144;27;43425;-63
2022/03/18 07:19:18;;;;;;;2.40;1.90;;;19.70;43.00;;;;;;5140716;27;43508;-64
2022/03/18 07:21:46;;;;;;;2.28;1.70;;;19.70;43.00;;;;;;5157429;27;44196;-64
2022/03/18 07:24:14;;;;;;;2.38;1.70;;;19.70;43.00;;;;;;5160752;27;44014;-64
2022/03/18 07:26:41;;;;;;;1.88;1.58;;;19.70;42.90;;;;;;5163237;27;43421;-63
2022/03/18 07:29:09;;;;;;;2.08;1.50;;;19.80;43.00;;;;;;5144374;27;43490;-65
2022/03/18 07:31:36;;;;;;;2.28;1.75;;;19.80;43.00;;;;;;5158477;27;44860;-64
2022/03/18 07:34:04;;;;;;;2.83;1.77;;;19.80;43.00;;;;;;5162711;27;43988;-64
2022/03/18 07:36:32;;;;;;;2.50;1.70;;;19.80;42.90;;;;;;5163029;27;43545;-63
2022/03/18 07:38:59;;;;;;;1.95;1.60;;;19.80;43.00;;;;;;5163105;27;43478;-64
2022/03/18 07:41:27;;;;;;;2.00;1.75;;;19.90;42.90;;;;;;5158766;27;43812;-64
2022/03/18 07:43:54;;;;;;;2.55;1.90;;;19.90;42.90;;;;;;5159745;27;43826;-64
2022/03/18 07:46:22;;;;;;;2.30;1.77;;;19.90;43.00;;;;;;5162560;27;43419;-64
2022/03/18 07:48:49;;;;;;;2.03;1.70;;;20.00;42.90;;;;;;5162850;27;43457;-64
2022/03/18 07:51:16;;;;;;;2.08;1.40;;;20.00;42.90;;;;;;5159023;27;43623;-64
2022/03/18 07:53:44;;;;;;;2.78;1.60;;;20.00;43.00;;;;;;5159705;27;43496;-64
2022/03/18 07:56:11;;;;;;;2.05;1.63;;;20.00;42.80;;;;;;5162502;27;43789;-63
2022/03/18 07:58:39;;;;;;;3.25;1.80;;;20.00;42.90;;;;;;5162895;27;43462;-63
2022/03/18 08:01:06;;;;;;;2.90;1.70;;;20.10;43.00;;;;;;5161456;27;44715;-63
2022/03/18 08:03:34;;;;;;;2.40;1.70;;;20.00;43.00;;;;;;5159693;27;43467;-63
2022/03/18 08:06:02;;;;;;;2.63;1.65;;;20.10;43.00;;;;;;5139131;27;43500;-64
2022/03/18 08:08:31;;;;;;;2.55;1.60;;;20.10;43.10;;;;;;5162619;27;43582;-63
2022/03/18 08:10:59;;;;;;;1.65;1.40;;;20.10;43.10;;;;;;5161465;27;44691;-64
2022/03/18 08:13:26;;;;;;;2.50;1.73;;;20.10;43.10;;;;;;5140396;27;43447;-64
2022/03/18 08:15:54;;;;;;;3.10;1.60;;;20.10;43.10;;;;;;5161987;27;43498;-64
2022/03/18 08:18:22;;;;;;;2.50;1.77;;;20.10;43.10;;;;;;5159583;27;43511;-64
2022/03/18 08:20:53;;;;;;;4.18;1.92;;;20.10;43.20;;;;;;5163374;27;43575;-63
2022/03/18 08:23:22;;;;;;;;;;;20.10;43.30;;;;;;5148648;27;43440;-63
2022/03/18 08:25:50;;;;;;;7.15;2.03;;;20.10;43.30;;;;;;5140976;27;43451;-63
2022/03/18 08:28:17;;;;;;;5.60;1.90;;;20.10;43.40;;;;;;5148289;27;43457;-63
2022/03/18 08:30:46;;;;;;;4.45;2.22;;;20.20;43.40;;;;;;5143313;27;44726;-64
2022/03/18 08:33:13;;;;;;;5.15;2.63;;;20.20;43.40;;;;;;5148099;27;43793;-64
2022/03/18 08:35:41;;;;;;;7.07;2.63;;;20.20;43.40;;;;;;5147890;27;44165;-64
2022/03/18 08:38:09;;;;;;;3.08;1.90;;;20.40;43.50;;;;;;5122437;27;43511;-64
2022/03/18 08:40:38;;;;;;;4.25;2.58;;;20.40;43.30;;;;;;5147974;27;44418;-64
2022/03/18 08:43:11;;;;;;;3.47;2.13;;;20.60;43.30;;;;;;5136252;27;43460;-64
2022/03/18 08:45:40;;;;;;;2.22;2.00;;;20.70;43.50;;;;;;5144522;27;43495;-64
2022/03/18 08:48:07;;;;;;;3.72;2.22;;;20.90;43.30;;;;;;5146861;27;43520;-63
2022/03/18 08:50:35;;;;;;;3.55;2.30;;;21.10;43.20;;;;;;5139159;27;43817;-63
2022/03/18 08:53:09;;;;;;;3.00;1.67;;;21.20;43.20;;;;;;5116808;27;43460;-62
2022/03/18 08:55:40;;;;;;;3.50;1.92;;;21.30;43.30;;;;;;5143417;27;43471;-62
2022/03/18 08:58:08;;;;;;;4.32;2.30;;;21.40;43.40;;;;;;5128256;27;43614;-62
2022/03/18 09:00:36;;;;;;;5.38;2.00;;;21.50;43.50;;;;;;5129284;27;44689;-62
2022/03/18 09:03:04;;;;;;;3.45;1.88;;;21.60;43.50;;;;;;5146383;27;43511;-64
2022/03/18 09:05:32;;;;;;;4.22;2.17;;;21.70;43.50;;;;;;5142039;27;43444;-60
2022/03/18 09:07:59;;;;;;;3.20;1.90;;;21.80;43.60;;;;;;5145054;27;43492;-61
2022/03/18 09:10:28;;;;;;;5.40;2.03;;;21.90;43.60;;;;;;5145877;27;44062;-62
2022/03/18 09:12:58;;;;;;;3.05;2.00;;;22.00;43.40;;;;;;5145748;27;43624;-63
2022/03/18 09:15:26;;;;;;;5.72;2.03;;;22.10;43.40;;;;;;5142489;27;43615;-61
2022/03/18 09:17:54;;;;;;;3.42;1.70;;;22.30;44.00;;;;;;5146590;27;43426;-61
2022/03/18 09:20:22;;;;;;;6.63;2.25;;;22.40;43.20;;;;;;5112290;27;44694;-63
2022/03/18 09:22:49;;;;;;;5.85;1.90;;;22.50;43.20;;;;;;5145801;27;43567;-63
2022/03/18 09:25:17;;;;;;;4.45;1.92;;;22.60;43.30;;;;;;5145921;27;43477;-63
2022/03/18 09:27:44;;;;;;;3.38;1.58;;;22.70;42.90;;;;;;5144781;27;43485;-63
2022/03/18 09:30:13;;;;;;;5.82;2.20;;;22.80;42.70;;;;;;5146048;27;44749;-64
2022/03/18 09:32:42;;;;;;;4.22;1.85;;;22.90;42.60;;;;;;5145181;27;43574;-64
2022/03/18 09:35:11;;;;;;;2.60;1.45;;;23.00;42.30;;;;;;5127730;27;43455;-63
2022/03/18 09:37:39;;;;;;;3.88;1.77;;;23.20;42.20;;;;;;5143306;27;43406;-63
2022/03/18 09:40:08;;;;;;;3.92;1.70;;;23.30;42.10;;;;;;5126851;27;43682;-64
2022/03/18 09:43:14;;;;;;;4.13;1.60;;;23.40;42.00;;;;;;5144351;27;43396;-64
2022/03/18 09:45:44;;;;;;;2.42;1.23;;;23.50;41.80;;;;;;5145788;27;43517;-63
2022/03/18 09:48:24;;;;;;;;;;;23.60;41.70;;;;;;5160332;27;43599;-63
2022/03/18 09:50:53;;;;;;;5.07;1.80;;;23.60;41.60;;;;;;5145008;27;43960;-64
2022/03/18 09:53:21;;;;;;;3.45;1.70;;;23.60;41.50;;;;;;5142139;27;43387;-63
2022/03/18 09:55:52;;;;;;;6.20;1.70;;;23.70;41.50;;;;;;5139828;27;43536;-62
2022/03/18 09:58:24;;;;;;;3.60;2.20;;;23.70;41.60;;;;;;5145840;27;43421;-62
2022/03/18 10:00:57;;;;;;;3.63;1.67;;;23.80;41.40;;;;;;5145844;27;43806;-63
2022/03/18 10:03:36;;;;;;;5.18;2.00;;;23.80;41.60;;;;;;5145430;27;43813;-62
2022/03/18 10:06:04;;;;;;;2.53;1.73;;;23.80;41.30;;;;;;5145246;27;43533;-64
2022/03/18 10:08:44;;;;;;;4.32;1.70;;;23.80;41.50;;;;;;5146082;27;43533;-62
2022/03/18 10:11:27;;;;;;;2.95;1.77;;;23.80;41.40;;;;;;5141092;27;44973;-63
2022/03/18 10:14:02;;;;;;;3.47;2.00;;;23.80;41.30;;;;;;5126454;27;44088;-63
2022/03/18 10:16:31;;;;;;;3.80;1.80;;;23.80;41.30;;;;;;5145849;27;43596;-63
2022/03/18 10:18:59;;;;;;;3.67;1.90;;;23.80;41.40;;;;;;5146809;27;43621;-64
2022/03/18 10:21:28;;;;;;;4.93;1.88;;;23.80;41.60;;;;;;5146152;27;45080;-62
2022/03/18 10:24:09;;;;;;;2.85;1.67;;;23.80;41.40;;;;;;5144866;27;43716;-63
2022/03/18 10:26:38;;;;;;;4.25;1.80;;;23.80;41.50;;;;;;5145467;27;43399;-63
2022/03/18 10:29:11;;;;;;;4.88;1.80;;;23.80;41.60;;;;;;5145781;27;43485;-62
2022/03/18 10:31:46;;;;;;;4.30;1.92;;;23.80;41.60;;;;;;5143496;27;43809;-63
2022/03/18 10:37:08;;;;;;;3.65;1.63;;;23.80;41.70;;;;;;5144682;27;43506;-63
2022/03/18 10:39:37;;;;;;;;;;;23.80;41.60;;;;;;5145820;27;43579;-63
2022/03/18 10:42:15;;;;;;;1.92;1.50;;;23.80;41.70;;;;;;5141795;27;44965;-62
2022/03/18 10:44:52;;;;;;;4.05;1.83;;;23.80;41.80;;;;;;5144959;27;43544;-63
2022/03/18 10:47:35;;;;;;;3.65;1.50;;;23.80;41.70;;;;;;5142703;27;43444;-63
2022/03/18 10:50:11;;;;;;;3.33;1.75;;;23.90;41.80;;;;;;5141406;27;43466;-62
2022/03/18 10:52:46;;;;;;;2.38;1.42;;;23.90;41.80;;;;;;5144717;27;44898;-63
2022/03/18 10:55:40;;;;;;;3.15;1.55;;;23.90;41.80;;;;;;5130154;27;43528;-63
2022/03/18 10:58:08;;;;;;;5.72;1.80;;;23.90;41.80;;;;;;5144771;27;43472;-63
2022/03/18 11:00:37;;;;;;;3.42;1.67;;;23.90;41.80;;;;;;5145137;27;43635;-63
2022/03/18 11:03:06;;;;;;;3.25;1.60;;;23.90;41.70;;;;;;5142498;27;43938;-63
2022/03/18 11:05:46;;;;;;;3.15;1.65;;;23.90;42.10;;;;;;5125692;27;43438;-62
2022/03/18 11:08:24;;;;;;;2.47;1.58;;;24.00;41.80;;;;;;5145080;27;43456;-63
2022/03/18 11:13:51;;;;;;;3.83;1.75;;;24.00;41.80;;;;;;5144056;27;44060;-62
2022/03/18 11:16:29;;;;;;;2.72;1.70;;;24.10;41.70;;;;;;5142071;27;44073;-62
2022/03/18 11:19:06;;;;;;;3.25;1.65;;;24.10;41.60;;;;;;5127104;27;43500;-63
2022/03/18 11:21:38;;;;;;;3.55;1.73;;;24.10;41.70;;;;;;5125934;27;43532;-63
2022/03/18 11:24:15;;;;;;;3.20;1.90;;;24.10;41.80;;;;;;5124526;27;44218;-62
2022/03/18 11:26:47;;;;;;;2.75;2.00;;;24.10;41.80;;;;;;5143539;27;43433;-63
2022/03/18 11:29:23;;;;;;;3.50;1.80;;;24.10;41.80;;;;;;5144107;27;43520;-62
2022/03/18 11:32:09;;;;;;;3.90;1.77;;;24.10;41.80;;;;;;5141017;27;43443;-62
2022/03/18 11:35:03;;;;;;;2.45;1.60;;;24.10;41.90;;;;;;5142337;27;43823;-62
2022/03/18 11:37:30;;;;;;;3.30;1.77;;;24.10;41.90;;;;;;5143660;27;43451;-62
2022/03/18 11:40:27;;;;;;;3.42;1.70;;;24.10;41.90;;;;;;5125590;27;43399;-63
2022/03/18 11:43:32;;;;;;;3.08;1.90;;;24.20;41.90;;;;;;5123801;27;43573;-63
2022/03/18 11:46:15;;;;;;;3.00;1.50;;;24.20;41.90;;;;;;5142491;27;44115;-63
2022/03/18 11:48:46;;;;;;;1.75;1.30;;;24.30;42.00;;;;;;5123993;27;43551;-63
2022/03/18 11:51:29;;;;;;;;;;;24.20;42.10;;;;;;5142758;27;43476;-63
2022/03/18 11:54:16;;;;;;;3.55;1.58;;;24.30;42.10;;;;;;5143679;27;43461;-62
2022/03/18 11:56:49;;;;;;;1.48;1.20;;;24.30;42.10;;;;;;5132960;27;44062;-63
2022/03/18 12:01:54;;;;;;;4.40;1.73;;;24.30;42.10;;;;;;5145673;27;44087;-64
2022/03/18 12:04:39;;;;;;;2.72;1.67;;;24.30;42.10;;;;;;5144972;27;43445;-62
2022/03/18 12:07:24;;;;;;;3.15;1.55;;;24.30;42.10;;;;;;5146678;27;44475;-62
2022/03/18 12:09:53;;;;;;;2.78;1.60;;;24.30;42.10;;;;;;5146466;27;43508;-63
2022/03/18 12:12:50;;;;;;;2.53;1.30;;;24.40;42.20;;;;;;5145797;27;43425;-63
2022/03/18 12:15:22;;;;;;;3.13;1.80;;;24.40;42.10;;;;;;5125836;27;43671;-63
2022/03/18 12:17:51;;;;;;;2.38;1.40;;;24.40;42.10;;;;;;5144870;27;43783;-62
2022/03/18 12:20:21;;;;;;;2.50;1.60;;;24.50;42.10;;;;;;5128012;27;44090;-62
2022/03/18 12:22:51;;;;;;;1.83;1.33;;;24.50;42.10;;;;;;5146592;27;43483;-62
2022/03/18 12:25:22;;;;;;;2.35;1.50;;;24.50;42.10;;;;;;5145601;27;43642;-63
2022/03/18 12:27:51;;;;;;;2.15;1.40;;;24.50;42.10;;;;;;5145487;27;44940;-62
2022/03/18 12:30:21;;;;;;;2.42;1.30;;;24.50;42.10;;;;;;5147436;27;43556;-62
2022/03/18 12:32:48;;;;;;;2.80;1.38;;;24.50;42.10;;;;;;5146598;27;43503;-63
2022/03/18 12:35:17;;;;;;;3.65;1.60;;;24.50;42.10;;;;;;5143965;27;43556;-62
2022/03/18 12:37:46;;;;;;;3.42;1.40;;;24.60;42.10;;;;;;5143844;27;44060;-63
2022/03/18 12:40:19;;;;;;;3.00;1.30;;;24.60;42.00;;;;;;5145708;27;44061;-61
2022/03/18 12:42:50;;;;;;;2.67;1.42;;;24.60;42.00;;;;;;5143185;27;43512;-63
2022/03/18 12:45:42;;;;;;;2.88;1.42;;;24.60;42.10;;;;;;5144867;27;43496;-63
2022/03/18 12:48:10;;;;;;;2.63;1.50;;;24.70;42.20;;;;;;5145300;27;44982;-62
2022/03/18 12:50:43;;;;;;;1.88;1.40;;;24.60;42.20;;;;;;5146500;27;43487;-62
2022/03/18 12:53:33;;;;;;;2.90;1.45;;;24.70;42.20;;;;;;5145931;27;43448;-62
2022/03/18 12:56:19;;;;;;;3.28;1.60;;;24.70;42.10;;;;;;5138211;27;43439;-62
2022/03/18 12:58:51;;;;;;;1.77;1.33;;;24.60;42.00;;;;;;5125517;27;45033;-62
2022/03/18 13:01:54;;;;;;;1.73;1.20;;;24.60;42.00;;;;;;5143801;27;43596;-63
2022/03/18 13:04:23;;;;;;;2.38;1.48;;;24.60;42.00;;;;;;5145056;27;43465;-62
2022/03/18 13:06:59;;;;;;;2.67;1.10;;;24.60;42.00;;;;;;5145394;27;43548;-62
2022/03/18 13:09:48;;;;;;;2.03;1.23;;;24.60;42.00;;;;;;5145521;27;43898;-64
2022/03/18 13:12:26;;;;;;;2.38;1.70;;;24.60;42.00;;;;;;5146129;27;44014;-62
2022/03/18 13:14:55;;;;;;;2.42;1.30;;;24.60;42.10;;;;;;5144563;27;43544;-63
2022/03/18 13:17:24;;;;;;;3.42;1.50;;;24.60;42.10;;;;;;5145790;27;43601;-62
2022/03/18 13:19:51;;;;;;;2.97;1.45;;;24.60;42.10;;;;;;5129562;27;44128;-63
2022/03/18 13:22:21;;;;;;;2.85;1.95;;;24.60;42.00;;;;;;5145550;27;43476;-63
2022/03/18 13:24:54;;;;;;;2.85;1.38;;;24.70;42.10;;;;;;5126767;27;43892;-62